createdAt,value
2022-11-23T00:01:26.155Z,2.33
2022-11-23T00:03:55.480Z,2.32
2022-11-23T00:06:23.320Z,2.35
2022-11-23T00:08:50.254Z,2.34
2022-11-23T00:11:17.711Z,2.34
2022-11-23T00:13:44.658Z,2.37
2022-11-23T00:16:16.584Z,2.40
2022-11-23T00:18:43.623Z,2.42
2022-11-23T00:21:12.343Z,2.43
2022-11-23T00:23:38.759Z,2.42
2022-11-23T00:26:05.824Z,2.42
2022-11-23T00:28:32.540Z,2.43
2022-11-23T00:30:59.103Z,2.42
2022-11-23T00:33:25.695Z,2.42
2022-11-23T00:36:03.226Z,2.43
2022-11-23T00:38:30.200Z,2.23
2022-11-23T00:41:04.603Z,2.39
2022-11-23T00:43:31.316Z,2.45
2022-11-23T00:46:15.317Z,2.42
2022-11-23T00:48:43.566Z,2.44
2022-11-23T00:51:11.867Z,2.44
2022-11-23T00:53:39.113Z,2.44
2022-11-23T00:56:06.472Z,2.44
2022-11-23T00:58:32.855Z,2.34
2022-11-23T01:01:13.587Z,2.46
2022-11-23T01:03:42.356Z,2.46
2022-11-23T01:06:17.142Z,2.45
2022-11-23T01:08:52.260Z,2.44
2022-11-23T01:11:19.576Z,2.44
2022-11-23T01:13:46.734Z,2.43
2022-11-23T01:16:35.531Z,2.48
2022-11-23T01:19:05.624Z,2.49
2022-11-23T01:21:32.651Z,2.49
2022-11-23T01:23:59.133Z,2.49
2022-11-23T01:26:25.897Z,2.52
2022-11-23T01:28:52.272Z,2.53
2022-11-23T01:31:23.093Z,2.54
2022-11-23T01:34:00.131Z,2.51
2022-11-23T01:36:28.426Z,2.52
2022-11-23T01:38:55.856Z,2.51
2022-11-23T01:41:25.020Z,2.55
2022-11-23T01:43:51.843Z,2.52
2022-11-23T01:46:18.553Z,2.53
2022-11-23T01:49:06.358Z,2.40
2022-11-23T01:51:39.625Z,2.54
2022-11-23T01:54:09.182Z,2.52
2022-11-23T01:56:39.361Z,2.47
2022-11-23T01:59:10.034Z,2.42
2022-11-23T02:01:36.700Z,2.49
2022-11-23T02:04:03.394Z,2.57
2022-11-23T02:06:30.294Z,2.57
2022-11-23T02:09:00.835Z,2.58
2022-11-23T02:11:27.466Z,2.58
2022-11-23T02:13:54.624Z,2.63
2022-11-23T02:16:22.069Z,2.50
2022-11-23T02:18:50.523Z,2.61
2022-11-23T02:21:18.686Z,2.61
2022-11-23T02:24:04.013Z,2.62
2022-11-23T02:26:32.549Z,2.61
2022-11-23T02:29:22.782Z,2.59
2022-11-23T02:31:50.524Z,2.58
2022-11-23T02:34:17.928Z,2.57
2022-11-23T02:36:48.609Z,2.59
2022-11-23T02:39:51.575Z,2.58
2022-11-23T02:42:18.232Z,2.61
2022-11-23T02:45:02.823Z,2.65
2022-11-23T02:47:29.156Z,2.66
2022-11-23T02:49:55.727Z,2.68
2022-11-23T02:52:22.004Z,2.69
2022-11-23T02:54:48.489Z,2.72
2022-11-23T02:57:15.219Z,2.75
2022-11-23T02:59:43.875Z,2.73
2022-11-23T03:02:10.922Z,2.73
2022-11-23T03:04:37.558Z,2.70
2022-11-23T03:07:03.941Z,2.67
2022-11-23T03:09:32.775Z,2.67
2022-11-23T03:11:59.554Z,2.68
2022-11-23T03:14:26.682Z,2.68
2022-11-23T03:16:53.558Z,2.69
2022-11-23T03:19:20.366Z,2.67
2022-11-23T03:21:47.443Z,2.66
2022-11-23T03:24:13.784Z,2.63
2022-11-23T03:26:40.371Z,2.62
2022-11-23T03:29:07.075Z,2.64
2022-11-23T03:31:33.483Z,2.64
2022-11-23T03:34:00.295Z,2.65
2022-11-23T03:36:27.139Z,2.66
2022-11-23T03:38:53.727Z,2.65
2022-11-23T03:41:20.752Z,2.64
2022-11-23T03:43:47.766Z,2.64
2022-11-23T03:46:14.095Z,2.66
2022-11-23T03:48:40.711Z,2.64
2022-11-23T03:51:07.073Z,2.63
2022-11-23T03:53:33.423Z,2.62
2022-11-23T03:56:00.048Z,2.65
2022-11-23T03:58:27.375Z,2.64
2022-11-23T04:00:54.645Z,2.64
2022-11-23T04:03:21.648Z,2.63
2022-11-23T04:05:49.939Z,2.65
2022-11-23T04:08:16.934Z,2.65
2022-11-23T04:10:43.573Z,2.63
2022-11-23T04:13:10.539Z,2.68
2022-11-23T04:15:36.868Z,2.68
2022-11-23T04:18:03.604Z,2.63
2022-11-23T04:20:30.383Z,2.70
2022-11-23T04:22:56.898Z,2.74
2022-11-23T04:25:24.686Z,2.70
2022-11-23T04:27:51.695Z,2.70
2022-11-23T04:30:18.684Z,2.68
2022-11-23T04:32:46.092Z,2.62
2022-11-23T04:35:13.103Z,2.69
2022-11-23T04:37:39.972Z,2.66
2022-11-23T04:40:09.562Z,2.54
2022-11-23T04:42:36.224Z,2.67
2022-11-23T04:45:02.572Z,2.65
2022-11-23T04:47:29.490Z,2.63
2022-11-23T04:49:56.078Z,2.63
2022-11-23T04:52:22.963Z,2.63
2022-11-23T04:54:49.717Z,2.48
2022-11-23T04:57:16.488Z,2.50
2022-11-23T04:59:43.490Z,2.57
2022-11-23T05:02:10.374Z,2.46
2022-11-23T05:04:37.325Z,2.51
2022-11-23T05:07:04.279Z,2.49
2022-11-23T05:09:32.530Z,2.41
2022-11-23T05:11:59.549Z,2.22
2022-11-23T05:14:26.433Z,2.33
2022-11-23T05:16:53.063Z,2.31
2022-11-23T05:19:20.459Z,2.30
2022-11-23T05:21:46.919Z,2.28
2022-11-23T05:24:14.156Z,2.30
2022-11-23T05:26:42.195Z,2.27
2022-11-23T05:29:08.641Z,2.18
2022-11-23T05:31:35.261Z,2.24
2022-11-23T05:34:01.867Z,2.25
2022-11-23T05:36:29.970Z,2.24
2022-11-23T05:38:56.614Z,2.18
2022-11-23T05:41:23.732Z,2.22
2022-11-23T05:43:50.342Z,2.19
2022-11-23T05:46:17.090Z,2.15
2022-11-23T05:48:44.063Z,2.05
2022-11-23T05:51:10.503Z,2.13
2022-11-23T05:53:38.579Z,2.14
2022-11-23T05:56:05.861Z,2.14
2022-11-23T05:58:33.498Z,2.13
2022-11-23T06:01:01.501Z,2.16
2022-11-23T06:03:29.092Z,2.18
2022-11-23T06:05:55.506Z,2.00
2022-11-23T06:08:23.693Z,2.17
2022-11-23T06:10:50.443Z,2.18
2022-11-23T06:13:16.940Z,2.03
2022-11-23T06:15:43.740Z,2.18
2022-11-23T06:18:11.088Z,2.20
2022-11-23T06:20:37.577Z,2.09
2022-11-23T06:23:03.959Z,2.12
2022-11-23T06:25:30.699Z,2.19
2022-11-23T06:27:59.344Z,2.29
2022-11-23T06:30:28.319Z,2.31
2022-11-23T06:32:58.599Z,2.33
2022-11-23T06:35:25.022Z,2.10
2022-11-23T06:37:53.662Z,2.32
2022-11-23T06:40:20.854Z,2.18
2022-11-23T06:42:50.722Z,2.13
2022-11-23T06:45:17.495Z,2.24
2022-11-23T06:47:46.425Z,2.35
2022-11-23T06:50:14.691Z,2.40
2022-11-23T06:52:44.851Z,2.41
2022-11-23T06:55:16.188Z,2.43
2022-11-23T06:57:42.599Z,2.37
2022-11-23T07:00:11.465Z,2.46
2022-11-23T07:02:41.867Z,2.14
2022-11-23T07:05:11.360Z,2.42
2022-11-23T07:07:38.287Z,2.44
2022-11-23T07:10:07.406Z,2.66
2022-11-23T07:12:34.114Z,2.71
2022-11-23T07:15:01.032Z,2.77
2022-11-23T07:17:28.611Z,2.61
2022-11-23T07:19:54.964Z,2.75
2022-11-23T07:22:21.601Z,2.67
2022-11-23T07:24:48.247Z,2.78
2022-11-23T07:27:20.808Z,2.82
2022-11-23T07:29:47.656Z,2.81
2022-11-23T07:32:15.610Z,2.88
2022-11-23T07:34:43.116Z,3.03
2022-11-23T07:37:09.920Z,3.11
2022-11-23T07:39:56.382Z,3.21
2022-11-23T07:42:35.583Z,3.28
2022-11-23T07:45:09.448Z,3.21
2022-11-23T07:47:42.589Z,3.27
2022-11-23T07:50:10.692Z,3.29
2022-11-23T07:52:42.387Z,3.33
2022-11-23T07:55:11.390Z,3.29
2022-11-23T07:57:37.873Z,3.13
2022-11-23T08:00:05.241Z,3.30
2022-11-23T08:02:57.796Z,3.28
2022-11-23T08:05:28.229Z,3.46
2022-11-23T08:08:01.687Z,3.52
2022-11-23T08:10:30.037Z,3.59
2022-11-23T08:13:01.354Z,3.61
2022-11-23T08:15:28.244Z,3.70
2022-11-23T08:17:58.659Z,3.72
2022-11-23T08:20:25.688Z,3.72
2022-11-23T08:22:52.897Z,3.73
2022-11-23T08:25:19.530Z,3.58
2022-11-23T08:27:45.875Z,3.69
2022-11-23T08:30:12.764Z,3.76
2022-11-23T08:32:39.390Z,3.81
2022-11-23T08:35:06.863Z,3.80
2022-11-23T08:37:33.335Z,3.82
2022-11-23T08:40:00.096Z,3.92
2022-11-23T08:42:26.653Z,3.94
2022-11-23T08:44:53.266Z,3.92
2022-11-23T08:47:19.965Z,3.98
2022-11-23T08:49:49.091Z,4.09
2022-11-23T08:52:22.863Z,4.09
2022-11-23T08:54:50.998Z,4.05
2022-11-23T08:57:27.496Z,4.22
2022-11-23T08:59:57.153Z,4.23
2022-11-23T09:02:23.703Z,4.03
2022-11-23T09:04:50.375Z,4.01
2022-11-23T09:07:17.235Z,4.20
2022-11-23T09:09:49.219Z,3.99
2022-11-23T09:12:15.571Z,4.37
2022-11-23T09:14:42.581Z,4.34
2022-11-23T09:17:09.189Z,4.24
2022-11-23T09:19:35.476Z,4.36
2022-11-23T09:22:02.531Z,4.52
2022-11-23T09:24:29.030Z,4.50
2022-11-23T09:26:56.195Z,4.60
2022-11-23T09:29:22.892Z,4.50
2022-11-23T09:31:49.272Z,4.37
2022-11-23T09:34:15.639Z,4.42
2022-11-23T09:36:45.567Z,4.15
2022-11-23T09:39:11.881Z,4.33
2022-11-23T09:41:56.758Z,4.20
2022-11-23T09:44:52.975Z,4.32
2022-11-23T09:48:05.674Z,4.06
2022-11-23T09:51:05.915Z,4.45
2022-11-23T09:53:47.322Z,4.54
2022-11-23T09:56:18.940Z,4.74
2022-11-23T09:58:45.676Z,4.84
2022-11-23T10:01:16.488Z,4.84
2022-11-23T10:04:03.202Z,5.04
2022-11-23T10:06:34.822Z,5.09
2022-11-23T10:09:29.914Z,5.23
2022-11-23T10:12:26.855Z,5.54
2022-11-23T10:15:17.978Z,6.05
2022-11-23T10:18:06.932Z,6.26
2022-11-23T10:21:12.815Z,6.39
2022-11-23T10:24:04.843Z,6.38
2022-11-23T10:26:35.454Z,6.26
2022-11-23T10:29:44.057Z,6.07
2022-11-23T10:32:33.404Z,5.95
2022-11-23T10:35:28.234Z,5.83
2022-11-23T10:38:19.451Z,5.82
2022-11-23T10:41:12.443Z,5.69
2022-11-23T10:44:09.129Z,5.75
2022-11-23T10:46:40.543Z,6.02
2022-11-23T10:49:26.814Z,5.74
2022-11-23T10:52:31.897Z,5.86
2022-11-23T10:55:06.228Z,6.16
2022-11-23T10:57:43.922Z,6.18
2022-11-23T11:00:16.015Z,6.24
2022-11-23T11:03:15.110Z,6.24
2022-11-23T11:06:12.601Z,6.19
2022-11-23T11:09:13.299Z,6.22
2022-11-23T11:11:46.141Z,6.28
2022-11-23T11:14:25.264Z,6.11
2022-11-23T11:16:56.286Z,6.19
2022-11-23T11:19:22.559Z,6.27
2022-11-23T11:21:49.268Z,6.17
2022-11-23T11:24:20.937Z,6.10
2022-11-23T11:26:52.415Z,6.12
2022-11-23T11:29:44.027Z,6.12
2022-11-23T11:32:14.687Z,6.00
2022-11-23T11:34:47.414Z,6.22
2022-11-23T11:37:35.693Z,6.17
2022-11-23T11:40:30.732Z,6.18
2022-11-23T11:43:01.583Z,6.40
2022-11-23T11:45:31.820Z,6.51
2022-11-23T11:48:07.412Z,6.49
2022-11-23T11:51:14.652Z,6.63
2022-11-23T11:53:59.317Z,6.60
2022-11-23T11:56:37.346Z,6.63
2022-11-23T11:59:26.705Z,6.54
2022-11-23T12:02:25.608Z,6.62
2022-11-23T12:05:15.514Z,6.52
2022-11-23T12:08:00.009Z,6.52
2022-11-23T12:10:39.045Z,6.44
2022-11-23T12:13:05.416Z,6.54
2022-11-23T12:15:49.496Z,6.65
2022-11-23T12:18:37.105Z,6.79
2022-11-23T12:21:05.109Z,7.00
2022-11-23T12:23:39.798Z,7.03
2022-11-23T12:26:33.056Z,7.25
2022-11-23T12:29:07.605Z,7.14
2022-11-23T12:31:54.728Z,7.17
2022-11-23T12:34:36.020Z,7.19
2022-11-23T12:37:31.074Z,7.11
2022-11-23T12:40:12.439Z,6.99
2022-11-23T12:42:52.684Z,7.10
2022-11-23T12:45:33.728Z,7.18
2022-11-23T12:48:34.112Z,7.16
2022-11-23T12:51:10.128Z,6.85
2022-11-23T12:54:03.034Z,6.91
2022-11-23T12:57:07.479Z,6.76
2022-11-23T12:59:51.375Z,6.64
2022-11-23T13:03:34.210Z,6.56
2022-11-23T13:06:28.868Z,6.33
2022-11-23T13:09:17.394Z,6.34
2022-11-23T13:12:03.860Z,6.18
2022-11-23T13:14:35.380Z,6.06
2022-11-23T13:17:40.173Z,5.64
2022-11-23T13:20:06.531Z,5.94
2022-11-23T13:22:33.635Z,5.90
2022-11-23T13:25:19.413Z,5.68
2022-11-23T13:27:50.675Z,5.89
2022-11-23T13:30:40.379Z,5.90
2022-11-23T13:33:21.052Z,5.95
2022-11-23T13:35:56.033Z,5.96
2022-11-23T13:38:38.368Z,5.99
2022-11-23T13:41:35.962Z,6.05
2022-11-23T13:44:35.196Z,6.08
2022-11-23T13:47:18.041Z,5.99
2022-11-23T13:49:45.229Z,6.13
2022-11-23T13:52:25.079Z,6.27
2022-11-23T13:55:13.716Z,6.21
2022-11-23T13:58:25.853Z,6.31
2022-11-23T14:00:57.034Z,6.28
2022-11-23T14:03:42.582Z,6.26
2022-11-23T14:06:57.303Z,6.24
2022-11-23T14:09:51.191Z,6.13
2022-11-23T14:12:27.144Z,6.11
2022-11-23T14:15:33.114Z,5.98
2022-11-23T14:18:09.677Z,5.79
2022-11-23T14:21:07.281Z,5.95
2022-11-23T14:23:53.767Z,5.83
2022-11-23T14:26:43.150Z,5.71
2022-11-23T14:29:26.763Z,5.58
2022-11-23T14:32:07.805Z,5.54
2022-11-23T14:34:42.880Z,5.52
2022-11-23T14:37:51.482Z,5.54
2022-11-23T14:40:30.648Z,5.55
2022-11-23T14:42:58.007Z,5.36
2022-11-23T14:45:28.866Z,5.35
2022-11-23T14:48:50.713Z,5.26
2022-11-23T14:51:17.270Z,4.46
2022-11-23T14:53:47.380Z,5.15
2022-11-23T14:56:53.660Z,5.02
2022-11-23T14:59:53.745Z,4.96
2022-11-23T15:02:35.692Z,4.85
2022-11-23T15:05:17.240Z,4.82
2022-11-23T15:07:54.523Z,4.77
2022-11-23T15:10:46.652Z,4.74
2022-11-23T15:13:26.738Z,4.73
2022-11-23T15:15:55.392Z,4.61
2022-11-23T15:18:37.959Z,4.79
2022-11-23T15:21:25.415Z,4.82
2022-11-23T15:23:55.270Z,4.80
2022-11-23T15:26:46.780Z,4.98
2022-11-23T15:29:36.592Z,5.02
2022-11-23T15:32:35.093Z,5.11
2022-11-23T15:35:08.286Z,5.11
2022-11-23T15:37:42.742Z,5.10
2022-11-23T15:40:13.251Z,5.07
2022-11-23T15:42:40.146Z,5.03
2022-11-23T15:45:06.936Z,4.89
2022-11-23T15:47:33.500Z,4.76
2022-11-23T15:50:02.004Z,4.63
2022-11-23T15:52:30.578Z,4.52
2022-11-23T15:54:58.092Z,4.40
2022-11-23T15:57:26.386Z,4.32
2022-11-23T15:59:57.728Z,4.25
2022-11-23T16:02:26.315Z,4.16
2022-11-23T16:05:11.568Z,4.06
2022-11-23T16:07:53.987Z,3.87
2022-11-23T16:10:25.981Z,3.75
2022-11-23T16:13:00.428Z,3.51
2022-11-23T16:15:41.575Z,3.57
2022-11-23T16:18:17.179Z,3.47
2022-11-23T16:20:59.065Z,3.44
2022-11-23T16:23:28.441Z,3.42
2022-11-23T16:26:00.000Z,3.42
2022-11-23T16:28:34.964Z,3.43
2022-11-23T16:31:01.679Z,3.36
2022-11-23T16:33:28.371Z,3.20
2022-11-23T16:35:54.671Z,3.31
2022-11-23T16:38:21.666Z,3.24
2022-11-23T16:40:48.345Z,3.23
2022-11-23T16:43:16.065Z,3.31
2022-11-23T16:45:44.903Z,3.28
2022-11-23T16:48:26.451Z,3.38
2022-11-23T16:50:57.302Z,3.39
2022-11-23T16:53:26.843Z,3.35
2022-11-23T16:55:54.087Z,3.30
2022-11-23T16:58:20.560Z,3.26
2022-11-23T17:00:49.035Z,3.23
2022-11-23T17:03:20.237Z,3.11
2022-11-23T17:05:47.458Z,3.06
2022-11-23T17:08:18.306Z,2.98
2022-11-23T17:10:50.461Z,2.93
2022-11-23T17:13:23.205Z,3.20
2022-11-23T17:15:50.870Z,3.16
2022-11-23T17:18:17.586Z,3.10
2022-11-23T17:20:44.407Z,3.04
2022-11-23T17:23:11.384Z,2.84
2022-11-23T17:25:38.216Z,2.97
2022-11-23T17:28:05.807Z,3.04
2022-11-23T17:30:33.137Z,2.97
2022-11-23T17:33:00.404Z,2.91
2022-11-23T17:35:26.721Z,2.88
2022-11-23T17:37:53.260Z,2.86
2022-11-23T17:40:21.438Z,2.85
2022-11-23T17:42:47.726Z,2.90
2022-11-23T17:45:14.601Z,2.97
2022-11-23T17:47:42.643Z,2.96
2022-11-23T17:50:17.735Z,2.97
2022-11-23T17:52:46.693Z,3.00
2022-11-23T17:55:15.358Z,2.99
2022-11-23T17:57:41.944Z,2.97
2022-11-23T18:00:18.603Z,3.01
2022-11-23T18:02:45.622Z,3.01
2022-11-23T18:05:15.268Z,3.00
2022-11-23T18:07:46.369Z,3.01
2022-11-23T18:10:13.800Z,3.01
2022-11-23T18:12:40.231Z,2.86
2022-11-23T18:15:08.844Z,2.98
2022-11-23T18:17:35.358Z,3.09
2022-11-23T18:20:01.867Z,3.14
2022-11-23T18:22:28.559Z,3.18
2022-11-23T18:24:54.861Z,3.22
2022-11-23T18:27:21.296Z,3.22
2022-11-23T18:29:47.897Z,3.20
2022-11-23T18:32:14.265Z,3.23
2022-11-23T18:34:40.575Z,3.22
2022-11-23T18:37:07.894Z,3.27
2022-11-23T18:39:34.948Z,3.28
2022-11-23T18:42:05.784Z,3.29
2022-11-23T18:44:32.786Z,3.23
2022-11-23T18:46:59.194Z,3.31
2022-11-23T18:49:25.513Z,3.33
2022-11-23T18:51:52.066Z,3.34
2022-11-23T18:54:18.539Z,3.34
2022-11-23T18:56:44.836Z,3.38
2022-11-23T18:59:28.721Z,3.35
2022-11-23T19:01:57.947Z,3.44
2022-11-23T19:04:24.572Z,3.47
2022-11-23T19:06:50.957Z,3.52
2022-11-23T19:09:17.266Z,3.53
2022-11-23T19:11:43.841Z,3.46
2022-11-23T19:14:10.785Z,3.62
2022-11-23T19:16:37.069Z,3.57
2022-11-23T19:19:06.415Z,3.69
2022-11-23T19:21:34.178Z,3.59
2022-11-23T19:24:01.097Z,3.69
2022-11-23T19:26:28.536Z,3.69
2022-11-23T19:28:55.485Z,3.71
2022-11-23T19:31:24.214Z,3.76
2022-11-23T19:33:52.649Z,3.79
2022-11-23T19:36:21.330Z,3.80
2022-11-23T19:38:48.511Z,3.80
2022-11-23T19:41:15.930Z,3.82
2022-11-23T19:43:42.370Z,3.83
2022-11-23T19:46:11.899Z,3.84
2022-11-23T19:48:39.475Z,3.82
2022-11-23T19:51:08.324Z,3.82
2022-11-23T19:53:36.743Z,3.78
2022-11-23T19:56:05.881Z,3.68
2022-11-23T19:58:32.900Z,3.84
2022-11-23T20:01:00.807Z,3.82
2022-11-23T20:03:27.429Z,3.83
2022-11-23T20:05:58.139Z,3.84
2022-11-23T20:08:24.786Z,3.85
2022-11-23T20:10:51.502Z,3.85
2022-11-23T20:13:17.780Z,3.73
2022-11-23T20:15:44.805Z,3.80
2022-11-23T20:18:11.644Z,3.63
2022-11-23T20:20:42.361Z,3.79
2022-11-23T20:23:09.375Z,3.76
2022-11-23T20:25:39.420Z,3.77
2022-11-23T20:28:06.174Z,3.78
2022-11-23T20:30:35.642Z,3.77
2022-11-23T20:33:02.876Z,3.77
2022-11-23T20:35:29.331Z,3.76
2022-11-23T20:37:55.652Z,3.77
2022-11-23T20:40:22.307Z,3.74
2022-11-23T20:42:48.826Z,3.70
2022-11-23T20:45:15.232Z,3.70
2022-11-23T20:47:42.205Z,3.68
2022-11-23T20:50:08.992Z,3.63
2022-11-23T20:52:35.364Z,3.58
2022-11-23T20:55:01.970Z,3.41
2022-11-23T20:57:28.281Z,3.46
2022-11-23T20:59:55.069Z,3.39
2022-11-23T21:02:21.698Z,3.36
2022-11-23T21:04:48.159Z,3.30
2022-11-23T21:07:14.508Z,3.28
2022-11-23T21:09:41.135Z,3.17
2022-11-23T21:12:26.148Z,3.23
2022-11-23T21:14:53.123Z,3.17
2022-11-23T21:17:20.285Z,3.23
2022-11-23T21:19:46.596Z,3.20
2022-11-23T21:22:14.478Z,3.21
2022-11-23T21:24:41.200Z,3.12
2022-11-23T21:27:10.454Z,2.98
2022-11-23T21:29:37.159Z,3.04
2022-11-23T21:32:03.617Z,3.07
2022-11-23T21:34:30.486Z,3.16
2022-11-23T21:36:57.670Z,3.09
2022-11-23T21:39:24.205Z,3.13
2022-11-23T21:41:52.274Z,3.08
2022-11-23T21:44:18.929Z,3.12
2022-11-23T21:46:45.348Z,3.09
2022-11-23T21:49:12.913Z,3.08
2022-11-23T21:51:39.604Z,3.07
2022-11-23T21:54:07.523Z,3.08
2022-11-23T21:56:33.904Z,3.09
2022-11-23T21:59:00.631Z,3.09
2022-11-23T22:01:34.141Z,3.12
2022-11-23T22:04:11.873Z,3.11
2022-11-23T22:06:39.230Z,3.04
2022-11-23T22:09:08.052Z,3.09
2022-11-23T22:11:35.607Z,3.14
2022-11-23T22:14:07.301Z,3.11
2022-11-23T22:16:35.553Z,2.98
2022-11-23T22:19:02.252Z,3.09
2022-11-23T22:21:31.894Z,3.04
2022-11-23T22:23:58.958Z,3.10
2022-11-23T22:26:27.550Z,3.10
2022-11-23T22:28:54.784Z,2.99
2022-11-23T22:31:23.316Z,3.08
2022-11-23T22:33:49.719Z,3.08
2022-11-23T22:36:21.318Z,3.10
2022-11-23T22:38:48.095Z,3.05
2022-11-23T22:41:16.634Z,3.10
2022-11-23T22:43:43.613Z,3.10
2022-11-23T22:46:12.625Z,3.10
2022-11-23T22:48:39.915Z,3.07
2022-11-23T22:51:06.810Z,3.09
2022-11-23T22:53:33.649Z,3.10
2022-11-23T22:56:04.637Z,3.11
2022-11-23T22:58:31.814Z,3.03
2022-11-23T23:01:05.685Z,3.09
2022-11-23T23:03:32.078Z,3.11
2022-11-23T23:05:59.762Z,3.11
2022-11-23T23:08:27.066Z,3.01
2022-11-23T23:10:53.800Z,3.08
2022-11-23T23:13:20.959Z,3.02
2022-11-23T23:15:47.581Z,3.07
2022-11-23T23:18:15.026Z,3.11
2022-11-23T23:20:42.011Z,2.97
2022-11-23T23:23:08.604Z,3.08
2022-11-23T23:25:34.951Z,3.09
2022-11-23T23:28:01.514Z,3.11
2022-11-23T23:30:27.758Z,3.11
2022-11-23T23:32:54.446Z,3.12
2022-11-23T23:35:21.077Z,3.11
2022-11-23T23:37:51.431Z,3.12
2022-11-23T23:40:17.971Z,3.12
2022-11-23T23:42:44.482Z,3.05
2022-11-23T23:45:10.886Z,3.15
2022-11-23T23:47:37.899Z,3.15
2022-11-23T23:50:04.881Z,3.17
2022-11-23T23:52:31.137Z,3.14
2022-11-23T23:54:57.392Z,3.17
2022-11-23T23:57:23.913Z,3.16
2022-11-23T23:59:50.149Z,3.19
